All Spectrum Aviation - Van Nuys Airport - KVNY

HOME

Condor Squadron KVNY Webcam

Visit our Electronics Store

Condor Squadron Webcam - Van Nuys Airport - KVNY
Picture taken: Wed, 05 Aug 2020 09:50:35 -0700
YouTube Channel!    Latest Timelapse Movie    Full Size Image    Regular Size Image    

2020/08/05 15:51 KVNY 051551Z 18004KT 7SM OVC012 20/16 A2995 RMK AO2 SLP133 T02000156

HOME

Condor Squadron KVNY Webcam

Visit our Electronics Store